createdAt,value
2023-04-03T00:00:50.558Z,0.10
2023-04-03T00:01:50.688Z,0.28
2023-04-03T00:02:50.751Z,0.10
2023-04-03T00:03:50.721Z,0.20
2023-04-03T00:04:50.633Z,0.10
2023-04-03T00:05:50.643Z,0.19
2023-04-03T00:06:50.753Z,0.10
2023-04-03T00:07:50.820Z,0.18
2023-04-03T00:08:50.824Z,0.13
2023-04-03T00:09:50.857Z,0.07
2023-04-03T00:10:50.863Z,0.19
2023-04-03T00:11:50.885Z,0.15
2023-04-03T00:12:50.893Z,0.23
2023-04-03T00:13:50.901Z,0.12
2023-04-03T00:14:50.953Z,0.21
2023-04-03T00:15:51.040Z,0.11
2023-04-03T00:16:51.182Z,0.10
2023-04-03T00:17:51.210Z,0.16
2023-04-03T00:18:51.156Z,0.18
2023-04-03T00:19:51.171Z,0.12
2023-04-03T00:20:51.184Z,0.09
2023-04-03T00:21:51.238Z,0.19
2023-04-03T00:22:51.248Z,0.26
2023-04-03T00:23:51.321Z,0.10
2023-04-03T00:24:51.424Z,0.11
2023-04-03T00:25:51.383Z,0.07
2023-04-03T00:26:51.417Z,0.11
2023-04-03T00:27:51.469Z,0.10
2023-04-03T00:28:51.437Z,0.12
2023-04-03T00:29:51.443Z,0.34
2023-04-03T00:30:51.492Z,0.05
2023-04-03T00:31:51.506Z,0.12
2023-04-03T00:32:51.656Z,0.36
2023-04-03T00:33:51.681Z,0.13
2023-04-03T00:34:51.689Z,0.10
2023-04-03T00:35:51.772Z,0.13
2023-04-03T00:36:51.850Z,0.11
2023-04-03T00:37:51.713Z,0.33
2023-04-03T00:38:51.698Z,0.10
2023-04-03T00:39:51.725Z,0.11
2023-04-03T00:40:51.730Z,0.09
2023-04-03T00:41:51.767Z,0.12
2023-04-03T00:42:51.804Z,0.08
2023-04-03T00:43:51.813Z,0.12
2023-04-03T00:44:51.846Z,0.13
2023-04-03T00:45:51.894Z,0.15
2023-04-03T00:46:51.846Z,0.09
2023-04-03T00:47:51.934Z,0.14
2023-04-03T00:48:51.997Z,0.23
2023-04-03T00:49:52.076Z,0.12
2023-04-03T00:50:52.156Z,0.12
2023-04-03T00:51:52.196Z,0.09
2023-04-03T00:52:52.231Z,0.11
2023-04-03T00:53:52.258Z,0.26
2023-04-03T00:54:52.292Z,0.09
2023-04-03T00:55:52.337Z,0.10
2023-04-03T00:56:52.413Z,0.17
2023-04-03T00:57:52.396Z,0.13
2023-04-03T00:58:52.402Z,0.06
2023-04-03T00:59:52.458Z,0.11
2023-04-03T01:00:52.474Z,0.12
2023-04-03T01:01:52.510Z,0.09
2023-04-03T01:02:52.543Z,0.10
2023-04-03T01:03:52.575Z,0.22
2023-04-03T01:04:52.529Z,0.10
2023-04-03T01:05:52.546Z,0.08
2023-04-03T01:06:52.598Z,0.15
2023-04-03T01:07:52.695Z,0.07
2023-04-03T01:08:52.759Z,0.06
2023-04-03T01:09:52.858Z,0.12
2023-04-03T01:10:52.929Z,0.11
2023-04-03T01:11:53.023Z,0.14
2023-04-03T01:12:53.039Z,0.12
2023-04-03T01:13:53.014Z,0.11
2023-04-03T01:14:53.028Z,0.16
2023-04-03T01:15:53.044Z,0.22
2023-04-03T01:16:53.001Z,0.05
2023-04-03T01:17:53.221Z,0.15
2023-04-03T01:18:53.178Z,0.12
2023-04-03T01:19:53.174Z,0.04
2023-04-03T01:20:53.178Z,0.09
2023-04-03T01:21:53.184Z,0.06
2023-04-03T01:22:53.241Z,0.14
2023-04-03T01:23:53.223Z,0.12
2023-04-03T01:24:53.215Z,0.06
2023-04-03T01:25:53.288Z,0.10
2023-04-03T01:26:53.371Z,0.17
2023-04-03T01:27:53.477Z,0.11
2023-04-03T01:28:53.579Z,0.21
2023-04-03T01:29:53.452Z,0.09
2023-04-03T01:30:53.463Z,0.07
2023-04-03T01:31:53.626Z,0.11
2023-04-03T01:32:53.596Z,0.17
2023-04-03T01:33:53.628Z,0.15
2023-04-03T01:34:53.621Z,0.08
2023-04-03T01:35:53.640Z,0.14
2023-04-03T01:36:53.625Z,0.06
2023-04-03T01:37:53.630Z,0.15
2023-04-03T01:38:53.643Z,0.08
2023-04-03T01:39:53.654Z,0.17
2023-04-03T01:40:53.740Z,0.06
2023-04-03T01:41:53.806Z,0.13
2023-04-03T01:42:53.786Z,0.30
2023-04-03T01:43:53.789Z,0.07
2023-04-03T01:44:53.791Z,0.27
2023-04-03T01:45:53.870Z,0.40
2023-04-03T01:46:53.796Z,0.13
2023-04-03T01:47:53.827Z,0.12
2023-04-03T01:48:53.845Z,0.07
2023-04-03T01:49:53.842Z,0.11
2023-04-03T01:50:53.909Z,0.04
2023-04-03T01:51:53.921Z,0.07
2023-04-03T01:52:53.935Z,0.07
2023-04-03T01:53:53.950Z,0.05
2023-04-03T01:54:53.993Z,0.02
2023-04-03T01:55:54.041Z,0.14
2023-04-03T01:56:54.062Z,0.12
2023-04-03T01:57:54.067Z,0.04
2023-04-03T01:58:54.094Z,0.04
2023-04-03T01:59:54.130Z,0.05
2023-04-03T02:00:54.188Z,0.17
2023-04-03T02:01:54.174Z,0.11
2023-04-03T02:02:54.176Z,0.08
2023-04-03T02:03:54.206Z,0.16
2023-04-03T02:04:54.196Z,0.11
2023-04-03T02:05:54.256Z,0.09
2023-04-03T02:06:54.259Z,0.09
2023-04-03T02:07:54.285Z,0.08
2023-04-03T02:08:54.277Z,0.24
2023-04-03T02:09:54.294Z,0.05
2023-04-03T02:10:54.316Z,0.03
2023-04-03T02:11:54.310Z,0.09
2023-04-03T02:12:54.350Z,0.11
2023-04-03T02:13:54.474Z,0.10
2023-04-03T02:14:54.525Z,0.13
2023-04-03T02:15:54.632Z,0.18
2023-04-03T02:16:54.667Z,0.05
2023-04-03T02:17:55.127Z,0.09
2023-04-03T02:18:54.627Z,0.12
2023-04-03T02:19:54.623Z,0.15
2023-04-03T02:20:54.629Z,0.06
2023-04-03T02:21:54.647Z,0.08
2023-04-03T02:22:54.645Z,0.07
2023-04-03T02:23:54.725Z,0.13
2023-04-03T02:24:54.708Z,0.23
2023-04-03T02:25:54.694Z,0.20
2023-04-03T02:26:54.687Z,0.11
2023-04-03T02:27:54.704Z,0.10
2023-04-03T02:28:54.715Z,0.12
2023-04-03T02:29:54.796Z,0.12
2023-04-03T02:30:54.926Z,0.12
2023-04-03T02:31:54.889Z,0.13
2023-04-03T02:32:54.984Z,0.16
2023-04-03T02:33:54.900Z,0.09
2023-04-03T02:34:54.908Z,0.18
2023-04-03T02:35:55.232Z,0.20
2023-04-03T02:36:55.113Z,0.10
2023-04-03T02:37:55.093Z,0.19
2023-04-03T02:38:55.095Z,0.09
2023-04-03T02:39:55.100Z,0.26
2023-04-03T02:40:55.110Z,0.12
2023-04-03T02:41:55.090Z,0.31
2023-04-03T02:42:55.170Z,0.18
2023-04-03T02:43:55.181Z,0.09
2023-04-03T02:44:55.171Z,0.13
2023-04-03T02:45:55.241Z,0.06
2023-04-03T02:46:55.161Z,0.20
2023-04-03T02:47:55.241Z,0.17
2023-04-03T02:48:55.219Z,0.33
2023-04-03T02:49:55.233Z,0.08
2023-04-03T02:50:55.238Z,0.12
2023-04-03T02:51:55.251Z,0.15
2023-04-03T02:52:55.245Z,0.08
2023-04-03T02:53:55.235Z,0.18
2023-04-03T02:54:55.323Z,0.10
2023-04-03T02:55:55.408Z,0.23
2023-04-03T02:56:55.449Z,0.19
2023-04-03T02:57:55.417Z,0.12
2023-04-03T02:58:55.445Z,0.21
2023-04-03T02:59:55.402Z,0.18
2023-04-03T03:00:55.467Z,0.19
2023-04-03T03:01:55.636Z,0.33
2023-04-03T03:02:55.706Z,0.12
2023-04-03T03:03:55.663Z,0.18
2023-04-03T03:04:55.709Z,0.24
2023-04-03T03:05:55.669Z,0.06
2023-04-03T03:06:55.691Z,0.09
2023-04-03T03:07:55.673Z,0.12
2023-04-03T03:08:55.798Z,0.19
2023-04-03T03:09:55.782Z,0.29
2023-04-03T03:10:55.778Z,0.22
2023-04-03T03:11:55.779Z,0.25
2023-04-03T03:12:55.781Z,0.11
2023-04-03T03:13:55.800Z,0.26
2023-04-03T03:14:55.811Z,0.13
2023-04-03T03:15:55.828Z,0.13
2023-04-03T03:16:55.804Z,0.14
2023-04-03T03:17:55.843Z,0.16
2023-04-03T03:18:57.228Z,0.18
2023-04-03T03:19:55.813Z,0.13
2023-04-03T03:20:55.836Z,0.18
2023-04-03T03:21:55.854Z,0.08
2023-04-03T03:22:55.857Z,0.20
2023-04-03T03:23:55.876Z,0.16
2023-04-03T03:24:55.995Z,0.20
2023-04-03T03:25:55.985Z,0.14
2023-04-03T03:26:56.030Z,0.23
2023-04-03T03:27:55.982Z,0.27
2023-04-03T03:28:56.029Z,0.18
2023-04-03T03:29:56.007Z,0.15
2023-04-03T03:30:56.005Z,0.12
2023-04-03T03:31:56.046Z,0.13
2023-04-03T03:32:56.083Z,0.12
2023-04-03T03:33:56.022Z,0.22
2023-04-03T03:34:56.048Z,0.09
2023-04-03T03:35:56.169Z,0.08
2023-04-03T03:36:56.159Z,0.24
2023-04-03T03:37:56.143Z,0.15
2023-04-03T03:38:56.165Z,0.22
2023-04-03T03:39:56.180Z,0.10
2023-04-03T03:40:56.179Z,0.14
2023-04-03T03:41:56.264Z,0.16
2023-04-03T03:42:56.283Z,0.32
2023-04-03T03:43:56.269Z,0.10
2023-04-03T03:44:56.285Z,0.21
2023-04-03T03:45:56.292Z,0.28
2023-04-03T03:46:56.347Z,0.11
2023-04-03T03:47:56.452Z,0.21
2023-04-03T03:48:56.553Z,0.20
2023-04-03T03:49:56.556Z,0.17
2023-04-03T03:50:56.548Z,0.14
2023-04-03T03:51:56.559Z,0.13
2023-04-03T03:52:56.586Z,0.26
2023-04-03T03:53:56.604Z,0.09
2023-04-03T03:54:56.595Z,0.19
2023-04-03T03:55:56.626Z,0.18
2023-04-03T03:56:56.653Z,0.17
2023-04-03T03:57:56.630Z,0.23
2023-04-03T03:58:56.639Z,0.13
2023-04-03T03:59:56.720Z,0.16
2023-04-03T04:00:56.856Z,0.16
2023-04-03T04:01:56.878Z,0.16
2023-04-03T04:02:58.650Z,0.16
2023-04-03T04:03:56.992Z,0.12
2023-04-03T04:04:56.962Z,0.12
2023-04-03T04:05:56.925Z,0.17
2023-04-03T04:06:56.946Z,0.17
2023-04-03T04:07:57.092Z,0.16
2023-04-03T04:08:57.053Z,0.14
2023-04-03T04:09:57.069Z,0.19
2023-04-03T04:10:57.111Z,0.20
2023-04-03T04:11:57.098Z,0.25
2023-04-03T04:12:58.622Z,0.29
2023-04-03T04:13:57.142Z,0.12
2023-04-03T04:14:57.155Z,0.15
2023-04-03T04:15:57.144Z,0.08
2023-04-03T04:16:57.207Z,0.15
2023-04-03T04:17:57.185Z,0.12
2023-04-03T04:18:57.174Z,0.51
2023-04-03T04:19:57.185Z,0.26
2023-04-03T04:20:57.202Z,0.24
2023-04-03T04:21:57.198Z,0.24
2023-04-03T04:22:57.209Z,0.19
2023-04-03T04:23:57.218Z,0.19
2023-04-03T04:24:57.246Z,0.15
2023-04-03T04:25:57.217Z,0.11
2023-04-03T04:26:57.276Z,0.19
2023-04-03T04:27:57.266Z,0.10
2023-04-03T04:28:57.339Z,0.78
2023-04-03T04:29:59.252Z,0.22
2023-04-03T04:30:57.411Z,0.10
2023-04-03T04:31:57.370Z,0.06
2023-04-03T04:32:57.432Z,0.30
2023-04-03T04:33:57.433Z,0.13
2023-04-03T04:34:57.563Z,0.13
2023-04-03T04:35:57.730Z,0.25
2023-04-03T04:36:57.918Z,0.18
2023-04-03T04:37:57.758Z,0.19
2023-04-03T04:38:57.755Z,0.27
2023-04-03T04:39:57.801Z,0.17
2023-04-03T04:40:57.844Z,0.22
2023-04-03T04:41:57.813Z,0.26
2023-04-03T04:42:57.806Z,0.25
2023-04-03T04:43:57.832Z,0.18
2023-04-03T04:44:57.867Z,0.18
2023-04-03T04:45:57.938Z,0.15
2023-04-03T04:46:57.877Z,0.28
2023-04-03T04:47:57.912Z,0.28
2023-04-03T04:48:57.906Z,0.21
2023-04-03T04:49:57.895Z,0.30
2023-04-03T04:50:57.923Z,0.43
2023-04-03T04:51:57.939Z,0.37
2023-04-03T04:52:57.941Z,0.17
2023-04-03T04:53:58.046Z,0.13
2023-04-03T04:54:58.103Z,0.26
2023-04-03T04:55:58.235Z,0.22
2023-04-03T04:56:58.105Z,0.13
2023-04-03T04:57:58.092Z,0.24
2023-04-03T04:58:58.157Z,0.26
2023-04-03T04:59:58.236Z,0.28
2023-04-03T05:00:58.300Z,0.29
2023-04-03T05:01:58.390Z,0.22
2023-04-03T05:02:58.315Z,0.23
2023-04-03T05:03:58.328Z,0.30
2023-04-03T05:04:58.449Z,0.11
2023-04-03T05:05:58.378Z,0.29
2023-04-03T05:06:58.387Z,0.48
2023-04-03T05:07:58.414Z,0.36
2023-04-03T05:08:58.408Z,0.40
2023-04-03T05:09:58.400Z,0.33
2023-04-03T05:10:58.445Z,0.62
2023-04-03T05:11:58.459Z,0.61
2023-04-03T05:12:58.477Z,0.81
2023-04-03T05:13:58.489Z,0.70
2023-04-03T05:14:58.500Z,0.72
2023-04-03T05:15:58.611Z,0.51
2023-04-03T05:16:58.640Z,0.36
2023-04-03T05:17:58.676Z,0.61
2023-04-03T05:18:58.656Z,0.41
2023-04-03T05:19:58.666Z,0.43
2023-04-03T05:20:58.682Z,0.46
2023-04-03T05:21:58.701Z,0.66
2023-04-03T05:22:58.715Z,0.43
2023-04-03T05:23:58.721Z,0.64
2023-04-03T05:24:58.721Z,0.41
2023-04-03T05:25:58.750Z,0.49
2023-04-03T05:26:58.851Z,0.41
2023-04-03T05:27:58.870Z,0.52
2023-04-03T05:28:58.910Z,0.44
2023-04-03T05:29:58.908Z,0.63
2023-04-03T05:30:58.919Z,0.58
2023-04-03T05:31:58.955Z,0.39
2023-04-03T05:32:59.064Z,0.51
2023-04-03T05:33:59.173Z,0.39
2023-04-03T05:35:01.214Z,0.70
2023-04-03T05:35:59.143Z,0.70
2023-04-03T05:36:59.168Z,0.44
2023-04-03T05:37:59.284Z,0.57
2023-04-03T05:38:59.266Z,0.49
2023-04-03T05:39:59.286Z,0.64
2023-04-03T05:40:59.300Z,0.46
2023-04-03T05:41:59.302Z,0.68
2023-04-03T05:42:59.324Z,0.67
2023-04-03T05:43:59.335Z,0.48
2023-04-03T05:44:59.336Z,0.52
2023-04-03T05:45:59.346Z,0.50
2023-04-03T05:46:59.336Z,0.76
2023-04-03T05:47:59.408Z,0.53
2023-04-03T05:48:59.380Z,0.49
2023-04-03T05:49:59.370Z,0.64
2023-04-03T05:50:59.388Z,0.59
2023-04-03T05:51:59.486Z,0.52
2023-04-03T05:52:59.488Z,0.60
2023-04-03T05:53:59.520Z,0.89
2023-04-03T05:54:59.523Z,0.39
2023-04-03T05:55:59.526Z,0.57
2023-04-03T05:56:59.591Z,0.58
2023-04-03T05:57:59.622Z,0.53
2023-04-03T05:58:59.648Z,0.70
2023-04-03T05:59:59.669Z,0.47
2023-04-03T06:00:59.668Z,0.46
2023-04-03T06:01:59.678Z,0.59
2023-04-03T06:02:59.848Z,0.49
2023-04-03T06:03:59.958Z,0.87
2023-04-03T06:04:59.736Z,0.68
2023-04-03T06:05:59.726Z,0.37
2023-04-03T06:06:59.730Z,0.54
2023-04-03T06:07:59.732Z,0.36
2023-04-03T06:09:00.742Z,0.43
2023-04-03T06:09:59.751Z,0.74
2023-04-03T06:10:59.766Z,0.64
2023-04-03T06:11:59.774Z,0.56
2023-04-03T06:12:59.771Z,0.61
2023-04-03T06:13:59.790Z,0.70
2023-04-03T06:14:59.892Z,0.44
2023-04-03T06:15:59.994Z,0.52
2023-04-03T06:17:00.154Z,0.36
2023-04-03T06:18:00.234Z,0.37
2023-04-03T06:19:00.117Z,0.43
2023-04-03T06:20:00.127Z,0.53
2023-04-03T06:21:00.164Z,0.45
2023-04-03T06:22:00.164Z,0.45
2023-04-03T06:23:00.196Z,0.41
2023-04-03T06:24:00.233Z,0.65
2023-04-03T06:25:00.465Z,0.48
2023-04-03T06:26:00.220Z,0.66
2023-04-03T06:27:00.225Z,0.53
2023-04-03T06:28:00.219Z,0.60
2023-04-03T06:29:00.234Z,0.45
2023-04-03T06:30:00.283Z,0.60
2023-04-03T06:31:00.390Z,0.42
2023-04-03T06:32:00.352Z,0.48
2023-04-03T06:33:00.471Z,0.46
2023-04-03T06:34:00.371Z,0.50
2023-04-03T06:35:00.367Z,0.55
2023-04-03T06:36:00.439Z,0.36
2023-04-03T06:37:00.411Z,0.48
2023-04-03T06:38:00.418Z,0.52
2023-04-03T06:39:00.559Z,0.38
2023-04-03T06:40:00.418Z,0.42
2023-04-03T06:41:00.504Z,0.45
2023-04-03T06:42:00.500Z,0.49
2023-04-03T06:43:00.523Z,0.72
2023-04-03T06:44:00.501Z,0.41
2023-04-03T06:45:00.519Z,0.53
2023-04-03T06:46:00.520Z,0.50
2023-04-03T06:47:00.598Z,0.44
2023-04-03T06:48:00.635Z,0.55
2023-04-03T06:49:00.592Z,0.57
2023-04-03T06:50:00.573Z,0.42
2023-04-03T06:51:00.575Z,0.48
2023-04-03T06:52:02.412Z,0.55
2023-04-03T06:53:00.584Z,0.47
2023-04-03T06:54:00.589Z,0.65
2023-04-03T06:55:00.693Z,0.68
2023-04-03T06:56:00.627Z,0.48
2023-04-03T06:57:00.780Z,0.53
2023-04-03T06:58:00.734Z,0.56
2023-04-03T06:59:00.759Z,0.65
2023-04-03T07:00:00.732Z,0.81
2023-04-03T07:01:00.719Z,0.61
2023-04-03T07:02:00.759Z,0.64
2023-04-03T07:03:00.875Z,0.50
2023-04-03T07:04:00.896Z,0.63
2023-04-03T07:05:00.998Z,0.40
2023-04-03T07:06:01.002Z,0.74
2023-04-03T07:07:01.160Z,0.45
2023-04-03T07:08:00.985Z,0.48
2023-04-03T07:09:00.999Z,0.69
2023-04-03T07:10:01.011Z,0.64
2023-04-03T07:11:01.002Z,0.58
2023-04-03T07:12:01.009Z,0.65
2023-04-03T07:13:01.005Z,0.50
2023-04-03T07:14:00.989Z,0.70
2023-04-03T07:15:00.997Z,0.91
2023-04-03T07:16:01.135Z,0.36
2023-04-03T07:17:01.175Z,0.68
2023-04-03T07:18:01.300Z,0.62
2023-04-03T07:19:01.257Z,0.66
2023-04-03T07:20:01.288Z,0.79
2023-04-03T07:21:01.312Z,0.34
2023-04-03T07:22:01.236Z,0.56
2023-04-03T07:23:02.791Z,0.56
2023-04-03T07:24:01.240Z,0.75
2023-04-03T07:25:01.253Z,0.51
2023-04-03T07:26:01.325Z,0.51
2023-04-03T07:27:01.452Z,0.47
2023-04-03T07:28:01.437Z,0.66
2023-04-03T07:29:01.446Z,0.50
2023-04-03T07:30:01.459Z,0.73
2023-04-03T07:31:01.441Z,0.74
2023-04-03T07:32:01.529Z,0.53
2023-04-03T07:33:01.511Z,0.73
2023-04-03T07:34:01.542Z,0.71
2023-04-03T07:35:02.457Z,0.41
2023-04-03T07:36:01.557Z,0.53
2023-04-03T07:37:01.504Z,0.76
2023-04-03T07:38:01.474Z,0.82
2023-04-03T07:39:01.473Z,0.56
2023-04-03T07:40:01.539Z,0.97
2023-04-03T07:41:01.658Z,0.41
2023-04-03T07:42:01.627Z,0.40
2023-04-03T07:43:01.642Z,0.49
2023-04-03T07:44:01.667Z,0.68
2023-04-03T07:45:01.674Z,0.61
2023-04-03T07:46:01.737Z,0.80
2023-04-03T07:47:01.692Z,0.79
2023-04-03T07:48:01.781Z,0.57
2023-04-03T07:49:01.849Z,0.82
2023-04-03T07:50:01.841Z,0.72
2023-04-03T07:51:01.843Z,0.62
2023-04-03T07:52:01.844Z,0.65
2023-04-03T07:53:01.894Z,0.59
2023-04-03T07:54:01.884Z,0.77
2023-04-03T07:55:01.953Z,0.74
2023-04-03T07:56:01.958Z,0.72
2023-04-03T07:57:02.001Z,0.81
2023-04-03T07:58:01.979Z,0.60
2023-04-03T07:59:02.019Z,0.88
2023-04-03T08:00:02.087Z,0.78
2023-04-03T08:01:02.090Z,0.95
2023-04-03T08:02:02.124Z,0.63
2023-04-03T08:03:02.260Z,0.65
2023-04-03T08:04:02.357Z,0.86
2023-04-03T08:05:02.319Z,0.77
2023-04-03T08:06:02.309Z,0.79
2023-04-03T08:07:02.357Z,0.69
2023-04-03T08:08:02.392Z,0.99
2023-04-03T08:09:02.409Z,0.73
2023-04-03T08:10:02.465Z,0.99
2023-04-03T08:11:02.504Z,1.12
2023-04-03T08:12:02.554Z,1.03
2023-04-03T08:13:02.668Z,1.01
2023-04-03T08:14:02.689Z,1.00
2023-04-03T08:15:02.733Z,1.02
2023-04-03T08:16:02.801Z,0.85
2023-04-03T08:17:02.834Z,0.97
2023-04-03T08:18:02.966Z,1.04
2023-04-03T08:19:05.217Z,1.05
2023-04-03T08:20:02.915Z,1.09
2023-04-03T08:21:02.914Z,0.98
2023-04-03T08:22:02.909Z,0.83
2023-04-03T08:23:02.909Z,1.15
2023-04-03T08:24:02.887Z,0.99
2023-04-03T08:25:02.908Z,1.01
2023-04-03T08:26:02.881Z,1.06
2023-04-03T08:27:02.890Z,0.98
2023-04-03T08:28:02.867Z,1.19
2023-04-03T08:29:02.890Z,0.86
2023-04-03T08:30:02.838Z,0.84
2023-04-03T08:31:02.858Z,1.00
2023-04-03T08:32:02.832Z,1.01
2023-04-03T08:33:02.855Z,0.91
2023-04-03T08:34:02.821Z,0.87
2023-04-03T08:35:02.828Z,0.87
2023-04-03T08:36:02.890Z,0.87
2023-04-03T08:37:02.918Z,0.99
2023-04-03T08:38:02.975Z,0.82
2023-04-03T08:39:03.009Z,1.07
2023-04-03T08:40:03.069Z,0.67
2023-04-03T08:41:03.118Z,1.01
2023-04-03T08:42:03.181Z,0.95
2023-04-03T08:43:03.318Z,0.79
2023-04-03T08:44:03.281Z,0.92
2023-04-03T08:45:03.306Z,1.19
2023-04-03T08:46:03.408Z,0.92
2023-04-03T08:47:03.402Z,0.93
2023-04-03T08:48:03.526Z,1.29
2023-04-03T08:49:03.632Z,1.03
2023-04-03T08:50:03.533Z,0.97
2023-04-03T08:51:03.943Z,1.12
2023-04-03T08:52:03.644Z,1.36
2023-04-03T08:53:03.647Z,1.00
2023-04-03T08:54:03.677Z,1.23
2023-04-03T08:55:03.678Z,1.04
2023-04-03T08:56:03.720Z,1.06
2023-04-03T08:57:03.743Z,1.40
2023-04-03T08:58:03.757Z,1.12
2023-04-03T08:59:03.845Z,1.29
2023-04-03T09:00:03.806Z,1.22
2023-04-03T09:01:03.806Z,1.19
2023-04-03T09:02:03.862Z,1.48
2023-04-03T09:03:03.941Z,1.50
2023-04-03T09:04:03.895Z,1.54
2023-04-03T09:05:03.881Z,1.38
2023-04-03T09:06:03.920Z,1.34
2023-04-03T09:07:03.924Z,1.07
2023-04-03T09:08:03.944Z,1.48
2023-04-03T09:09:03.965Z,1.05
2023-04-03T09:10:04.037Z,1.37
2023-04-03T09:11:04.005Z,1.06
2023-04-03T09:12:04.023Z,1.21
2023-04-03T09:13:04.056Z,1.34
2023-04-03T09:14:04.120Z,1.30
2023-04-03T09:15:04.202Z,1.24
2023-04-03T09:16:04.144Z,1.56
2023-04-03T09:17:04.144Z,1.24
2023-04-03T09:18:04.182Z,1.28
2023-04-03T09:19:04.144Z,1.38
2023-04-03T09:20:04.171Z,1.30
2023-04-03T09:21:04.171Z,0.83
2023-04-03T09:22:04.171Z,1.32
2023-04-03T09:23:04.177Z,1.21
2023-04-03T09:24:04.152Z,1.50
2023-04-03T09:25:04.177Z,1.16
2023-04-03T09:26:04.216Z,0.93
2023-04-03T09:27:04.227Z,1.36
2023-04-03T09:28:04.251Z,1.22
2023-04-03T09:29:04.248Z,1.09
2023-04-03T09:30:04.256Z,1.14
2023-04-03T09:31:04.410Z,1.44
2023-04-03T09:32:04.253Z,1.04
2023-04-03T09:33:04.297Z,1.08
2023-04-03T09:34:04.260Z,1.15
2023-04-03T09:35:16.882Z,1.19
2023-04-03T09:36:05.237Z,1.44
2023-04-03T09:37:04.241Z,1.03
2023-04-03T09:38:04.230Z,1.20
2023-04-03T09:39:04.210Z,1.22
2023-04-03T09:40:04.180Z,1.35
2023-04-03T09:41:04.181Z,1.41
2023-04-03T09:42:04.185Z,1.16
2023-04-03T09:43:04.160Z,1.07
2023-04-03T09:44:04.167Z,1.11
2023-04-03T09:45:04.154Z,1.16
2023-04-03T09:46:04.147Z,1.29
2023-04-03T09:47:04.273Z,1.26
2023-04-03T09:48:05.517Z,1.01
2023-04-03T09:49:09.346Z,1.08
2023-04-03T09:50:05.310Z,1.05
2023-04-03T09:51:04.297Z,1.04
2023-04-03T09:52:04.300Z,1.34
2023-04-03T09:53:04.298Z,1.38
2023-04-03T09:54:04.276Z,1.06
2023-04-03T09:55:04.296Z,1.23
2023-04-03T09:56:04.282Z,0.96
2023-04-03T09:57:04.303Z,1.26
2023-04-03T09:58:04.308Z,0.91
2023-04-03T09:59:04.236Z,0.95
2023-04-03T10:00:04.247Z,0.98
2023-04-03T10:01:04.252Z,0.82
2023-04-03T10:02:04.240Z,0.91
2023-04-03T10:03:04.406Z,1.07
2023-04-03T10:04:04.359Z,0.91
2023-04-03T10:06:04.382Z,1.13
2023-04-03T10:07:04.385Z,0.88
2023-04-03T10:08:04.363Z,0.85
2023-04-03T10:09:04.362Z,0.87
2023-04-03T10:10:04.347Z,0.85
2023-04-03T10:11:04.349Z,0.87
2023-04-03T10:12:04.336Z,0.93
2023-04-03T10:13:04.336Z,1.00
2023-04-03T10:14:04.331Z,0.93
2023-04-03T10:15:04.321Z,0.82
2023-04-03T10:16:04.294Z,0.81
2023-04-03T10:17:04.353Z,0.77
2023-04-03T10:18:14.329Z,1.11
2023-04-03T10:19:05.389Z,0.92
2023-04-03T10:20:04.272Z,0.60
2023-04-03T10:21:06.096Z,0.85
2023-04-03T10:22:04.253Z,0.86
2023-04-03T10:23:04.266Z,0.96
2023-04-03T10:24:04.269Z,1.06
2023-04-03T10:25:04.236Z,0.92
2023-04-03T10:26:04.234Z,0.89
2023-04-03T10:27:04.217Z,1.14
2023-04-03T10:28:04.226Z,0.69
2023-04-03T10:29:04.268Z,0.87
2023-04-03T10:30:04.191Z,0.92
2023-04-03T10:31:04.185Z,0.92
2023-04-03T10:32:04.216Z,0.69
2023-04-03T10:33:04.230Z,0.90
2023-04-03T10:34:04.175Z,0.69
2023-04-03T10:35:05.338Z,0.75
2023-04-03T10:36:04.216Z,1.05
2023-04-03T10:37:04.140Z,1.00
2023-04-03T10:38:04.156Z,0.70
2023-04-03T10:39:04.136Z,1.19
2023-04-03T10:40:04.143Z,0.86
2023-04-03T10:41:04.112Z,0.61
2023-04-03T10:42:13.310Z,1.15
2023-04-03T10:43:05.124Z,1.00
2023-04-03T10:44:04.131Z,0.61
2023-04-03T10:45:04.109Z,0.91
2023-04-03T10:46:04.115Z,0.70
2023-04-03T10:47:04.072Z,0.88
2023-04-03T10:48:04.146Z,0.60
2023-04-03T10:49:04.069Z,0.69
2023-04-03T10:50:04.058Z,1.02
2023-04-03T10:51:04.112Z,0.65
2023-04-03T10:52:04.038Z,0.91
2023-04-03T10:53:04.029Z,0.81
2023-04-03T10:54:04.046Z,0.80
2023-04-03T10:55:04.087Z,0.71
2023-04-03T10:56:04.022Z,0.83
2023-04-03T10:57:11.846Z,1.72
2023-04-03T10:58:05.010Z,1.47
2023-04-03T10:59:04.009Z,1.39
2023-04-03T11:00:04.016Z,1.14
2023-04-03T11:01:04.002Z,1.63
2023-04-03T11:02:04.005Z,1.46
2023-04-03T11:03:04.049Z,1.74
2023-04-03T11:04:04.143Z,2.33
2023-04-03T11:05:03.952Z,1.58
2023-04-03T11:06:03.945Z,1.86
2023-04-03T11:07:04.010Z,1.31
2023-04-03T11:08:03.985Z,1.51
2023-04-03T11:09:03.914Z,1.69
2023-04-03T11:10:03.908Z,1.20
2023-04-03T11:11:03.907Z,1.29
2023-04-03T11:12:03.901Z,1.16
2023-04-03T11:13:03.897Z,0.95
2023-04-03T11:14:03.956Z,1.22
2023-04-03T11:15:03.887Z,0.94
2023-04-03T11:16:03.920Z,0.94
2023-04-03T11:17:03.854Z,1.01
2023-04-03T11:18:03.914Z,1.17
2023-04-03T11:19:03.842Z,0.98
2023-04-03T11:20:03.895Z,0.74
2023-04-03T11:21:03.824Z,0.90
2023-04-03T11:22:03.815Z,0.93
2023-04-03T11:23:03.883Z,1.17
2023-04-03T11:24:03.809Z,1.36
2023-04-03T11:25:03.805Z,1.13
2023-04-03T11:26:03.804Z,1.20
2023-04-03T11:27:03.841Z,1.09
2023-04-03T11:28:03.795Z,0.82
2023-04-03T11:29:03.839Z,0.69
2023-04-03T11:30:03.808Z,1.23
2023-04-03T11:31:03.856Z,1.13
2023-04-03T11:32:03.802Z,1.12
2023-04-03T11:33:03.836Z,1.22
2023-04-03T11:34:03.807Z,1.05
2023-04-03T11:35:03.811Z,1.12
2023-04-03T11:36:09.700Z,1.09
2023-04-03T11:37:04.800Z,1.13
2023-04-03T11:38:03.822Z,1.43
2023-04-03T11:39:03.864Z,1.09
2023-04-03T11:40:03.789Z,1.18
2023-04-03T11:41:03.779Z,1.04
2023-04-03T11:42:12.899Z,1.12
2023-04-03T11:43:04.757Z,1.07
2023-04-03T11:44:03.775Z,0.95
2023-04-03T11:45:03.752Z,1.18
2023-04-03T11:46:03.754Z,1.05
2023-04-03T11:47:03.760Z,1.00
2023-04-03T11:48:13.005Z,0.94
2023-04-03T11:49:04.727Z,1.03
2023-04-03T11:50:03.694Z,0.99
2023-04-03T11:51:03.686Z,0.96
2023-04-03T11:52:03.671Z,1.08
2023-04-03T11:53:03.671Z,0.96
2023-04-03T11:54:03.677Z,1.01
2023-04-03T11:55:03.738Z,0.88
2023-04-03T11:56:03.641Z,1.09
2023-04-03T11:57:03.717Z,1.17
2023-04-03T11:58:03.641Z,1.13
2023-04-03T11:59:03.634Z,0.84
2023-04-03T12:00:03.628Z,1.05
2023-04-03T12:01:03.648Z,0.81
2023-04-03T12:02:03.668Z,0.89
2023-04-03T12:03:03.695Z,1.06
2023-04-03T12:04:03.763Z,0.67
2023-04-03T12:05:03.563Z,0.86
2023-04-03T12:06:03.573Z,0.79
2023-04-03T12:07:03.584Z,1.13
2023-04-03T12:08:03.602Z,0.98
2023-04-03T12:09:03.601Z,1.06
2023-04-03T12:10:03.629Z,0.84
2023-04-03T12:11:03.720Z,1.02
2023-04-03T12:12:03.637Z,1.17
2023-04-03T12:13:03.710Z,1.12
2023-04-03T12:14:04.453Z,1.13
2023-04-03T12:15:03.643Z,0.88
2023-04-03T12:16:03.669Z,0.92
2023-04-03T12:17:03.720Z,1.22
2023-04-03T12:18:03.730Z,0.68
2023-04-03T12:19:03.674Z,0.85
2023-04-03T12:20:03.648Z,1.04
2023-04-03T12:21:03.657Z,1.11
2023-04-03T12:22:03.655Z,0.94
2023-04-03T12:23:05.136Z,0.89
2023-04-03T12:24:03.680Z,0.73
2023-04-03T12:25:03.667Z,0.98
2023-04-03T12:26:03.684Z,0.79
2023-04-03T12:27:03.800Z,0.88
2023-04-03T12:28:03.704Z,0.93
2023-04-03T12:29:03.731Z,0.97
2023-04-03T12:30:03.736Z,0.71
2023-04-03T12:31:03.757Z,0.79
2023-04-03T12:32:03.819Z,1.00
2023-04-03T12:33:12.821Z,0.81
2023-04-03T12:34:04.808Z,0.83
2023-04-03T12:35:03.788Z,0.76
2023-04-03T12:36:03.815Z,0.96
2023-04-03T12:37:03.787Z,0.75
2023-04-03T12:38:03.764Z,0.55
2023-04-03T12:39:03.754Z,0.90
2023-04-03T12:40:03.735Z,0.60
2023-04-03T12:41:03.757Z,0.92
2023-04-03T12:42:03.726Z,0.79
2023-04-03T12:43:04.372Z,0.91
2023-04-03T12:44:03.721Z,0.78
2023-04-03T12:45:03.712Z,0.84
2023-04-03T12:46:03.813Z,0.87
2023-04-03T12:47:03.704Z,0.90
2023-04-03T12:48:03.741Z,0.73
2023-04-03T12:49:03.707Z,0.96
2023-04-03T12:50:03.675Z,0.53
2023-04-03T12:51:03.687Z,0.92
2023-04-03T12:52:03.663Z,0.87
2023-04-03T12:53:03.638Z,0.97
2023-04-03T12:54:03.649Z,0.90
2023-04-03T12:55:03.644Z,0.65
2023-04-03T12:56:03.661Z,1.09
2023-04-03T12:57:03.639Z,0.97
2023-04-03T12:58:03.613Z,0.99
2023-04-03T12:59:03.694Z,1.00
2023-04-03T13:00:03.598Z,0.84
2023-04-03T13:01:03.600Z,1.22
2023-04-03T13:02:03.735Z,1.03
2023-04-03T13:03:03.659Z,0.83
2023-04-03T13:04:03.634Z,0.64
2023-04-03T13:05:03.562Z,0.99
2023-04-03T13:06:03.553Z,0.90
2023-04-03T13:07:03.562Z,0.81
2023-04-03T13:08:03.537Z,0.89
2023-04-03T13:09:03.536Z,0.78
2023-04-03T13:10:03.538Z,0.87
2023-04-03T13:11:03.528Z,0.80
2023-04-03T13:12:03.588Z,0.87
2023-04-03T13:13:03.496Z,0.66
2023-04-03T13:14:03.514Z,0.92
2023-04-03T13:15:03.609Z,0.70
2023-04-03T13:16:03.562Z,0.79
2023-04-03T13:17:03.539Z,0.76
2023-04-03T13:18:03.578Z,0.81
2023-04-03T13:19:03.549Z,0.98
2023-04-03T13:20:03.548Z,0.90